sensor_id;sensor_type;location;lat;lon;timestamp;P1;durP1;ratioP1;P2;durP2;ratioP2
15486;SDS011;7845;53.698;10.078;2023-07-20T00:00:25;3.30;;;1.40;;
15486;SDS011;7845;53.698;10.078;2023-07-20T00:02:50;3.03;;;1.50;;
15486;SDS011;7845;53.698;10.078;2023-07-20T00:05:16;3.00;;;1.30;;
15486;SDS011;7845;53.698;10.078;2023-07-20T00:07:43;3.07;;;1.53;;
15486;SDS011;7845;53.698;10.078;2023-07-20T00:10:10;2.97;;;1.20;;
15486;SDS011;7845;53.698;10.078;2023-07-20T00:12:36;3.23;;;1.30;;
15486;SDS011;7845;53.698;10.078;2023-07-20T00:15:01;3.03;;;1.23;;
15486;SDS011;7845;53.698;10.078;2023-07-20T00:17:26;3.20;;;1.30;;
15486;SDS011;7845;53.698;10.078;2023-07-20T00:19:52;3.60;;;1.53;;
15486;SDS011;7845;53.698;10.078;2023-07-20T00:22:17;3.00;;;1.30;;
15486;SDS011;7845;53.698;10.078;2023-07-20T00:24:42;3.37;;;1.53;;
15486;SDS011;7845;53.698;10.078;2023-07-20T00:27:10;3.00;;;1.10;;
15486;SDS011;7845;53.698;10.078;2023-07-20T00:29:36;3.10;;;1.03;;
15486;SDS011;7845;53.698;10.078;2023-07-20T00:32:02;3.00;;;1.20;;
15486;SDS011;7845;53.698;10.078;2023-07-20T00:34:30;3.20;;;1.40;;
15486;SDS011;7845;53.698;10.078;2023-07-20T00:36:59;3.33;;;1.30;;
15486;SDS011;7845;53.698;10.078;2023-07-20T00:39:24;3.00;;;1.10;;
15486;SDS011;7845;53.698;10.078;2023-07-20T00:41:49;3.03;;;1.13;;
15486;SDS011;7845;53.698;10.078;2023-07-20T00:44:15;3.20;;;1.30;;
15486;SDS011;7845;53.698;10.078;2023-07-20T00:46:42;3.00;;;1.30;;
15486;SDS011;7845;53.698;10.078;2023-07-20T00:49:09;3.00;;;1.20;;
15486;SDS011;7845;53.698;10.078;2023-07-20T00:51:34;3.30;;;1.30;;
15486;SDS011;7845;53.698;10.078;2023-07-20T00:53:59;3.00;;;1.20;;
15486;SDS011;7845;53.698;10.078;2023-07-20T00:56:25;3.10;;;1.27;;
15486;SDS011;7845;53.698;10.078;2023-07-20T00:58:50;2.97;;;1.13;;
15486;SDS011;7845;53.698;10.078;2023-07-20T01:01:17;3.30;;;1.40;;
15486;SDS011;7845;53.698;10.078;2023-07-20T01:03:42;3.10;;;1.40;;
15486;SDS011;7845;53.698;10.078;2023-07-20T01:06:10;3.40;;;1.37;;
15486;SDS011;7845;53.698;10.078;2023-07-20T01:14:41;2.90;;;0.90;;
15486;SDS011;7845;53.698;10.078;2023-07-20T01:17:06;3.10;;;1.23;;
15486;SDS011;7845;53.698;10.078;2023-07-20T01:19:31;3.40;;;1.47;;
15486;SDS011;7845;53.698;10.078;2023-07-20T01:21:59;3.00;;;1.33;;
15486;SDS011;7845;53.698;10.078;2023-07-20T01:30:35;3.30;;;1.70;;
15486;SDS011;7845;53.698;10.078;2023-07-20T01:33:16;3.30;;;1.43;;
15486;SDS011;7845;53.698;10.078;2023-07-20T01:35:44;3.67;;;1.80;;
15486;SDS011;7845;53.698;10.078;2023-07-20T01:38:14;3.70;;;2.10;;
15486;SDS011;7845;53.698;10.078;2023-07-20T01:40:41;3.73;;;1.50;;
15486;SDS011;7845;53.698;10.078;2023-07-20T01:43:07;3.83;;;2.10;;
15486;SDS011;7845;53.698;10.078;2023-07-20T01:45:32;3.60;;;2.13;;
15486;SDS011;7845;53.698;10.078;2023-07-20T01:47:57;3.30;;;1.60;;
15486;SDS011;7845;53.698;10.078;2023-07-20T01:50:22;3.80;;;1.80;;
15486;SDS011;7845;53.698;10.078;2023-07-20T01:52:48;3.47;;;1.60;;
15486;SDS011;7845;53.698;10.078;2023-07-20T01:55:14;3.40;;;1.60;;
15486;SDS011;7845;53.698;10.078;2023-07-20T01:57:39;3.60;;;1.90;;
15486;SDS011;7845;53.698;10.078;2023-07-20T02:00:05;3.20;;;1.30;;
15486;SDS011;7845;53.698;10.078;2023-07-20T02:02:33;3.97;;;2.30;;
15486;SDS011;7845;53.698;10.078;2023-07-20T02:04:58;4.27;;;1.90;;
15486;SDS011;7845;53.698;10.078;2023-07-20T02:07:23;3.30;;;1.37;;
15486;SDS011;7845;53.698;10.078;2023-07-20T02:09:48;3.30;;;1.70;;
15486;SDS011;7845;53.698;10.078;2023-07-20T02:12:14;3.30;;;1.47;;
15486;SDS011;7845;53.698;10.078;2023-07-20T02:14:39;5.17;;;1.50;;
15486;SDS011;7845;53.698;10.078;2023-07-20T02:17:04;3.50;;;1.50;;
15486;SDS011;7845;53.698;10.078;2023-07-20T02:19:30;3.47;;;1.90;;
15486;SDS011;7845;53.698;10.078;2023-07-20T02:21:55;3.00;;;1.30;;
15486;SDS011;7845;53.698;10.078;2023-07-20T02:24:21;3.60;;;1.50;;
15486;SDS011;7845;53.698;10.078;2023-07-20T02:26:46;3.90;;;2.83;;
15486;SDS011;7845;53.698;10.078;2023-07-20T02:29:11;3.80;;;1.60;;
15486;SDS011;7845;53.698;10.078;2023-07-20T02:31:37;3.20;;;1.50;;
15486;SDS011;7845;53.698;10.078;2023-07-20T02:34:04;4.77;;;2.03;;
15486;SDS011;7845;53.698;10.078;2023-07-20T02:36:34;4.53;;;2.40;;
15486;SDS011;7845;53.698;10.078;2023-07-20T02:38:59;4.13;;;2.30;;
15486;SDS011;7845;53.698;10.078;2023-07-20T02:41:29;3.73;;;1.97;;
15486;SDS011;7845;53.698;10.078;2023-07-20T02:43:58;3.93;;;2.10;;
15486;SDS011;7845;53.698;10.078;2023-07-20T02:46:23;3.83;;;1.83;;
15486;SDS011;7845;53.698;10.078;2023-07-20T02:48:50;4.00;;;1.97;;
15486;SDS011;7845;53.698;10.078;2023-07-20T02:51:15;4.70;;;2.90;;
15486;SDS011;7845;53.698;10.078;2023-07-20T02:53:41;3.97;;;2.53;;
15486;SDS011;7845;53.698;10.078;2023-07-20T02:56:07;4.03;;;2.10;;
15486;SDS011;7845;53.698;10.078;2023-07-20T02:58:34;3.80;;;1.90;;
15486;SDS011;7845;53.698;10.078;2023-07-20T03:01:01;3.93;;;2.37;;
15486;SDS011;7845;53.698;10.078;2023-07-20T03:03:28;3.90;;;2.10;;
15486;SDS011;7845;53.698;10.078;2023-07-20T03:05:53;4.50;;;2.23;;
15486;SDS011;7845;53.698;10.078;2023-07-20T03:08:24;4.43;;;2.87;;
15486;SDS011;7845;53.698;10.078;2023-07-20T03:10:50;3.60;;;1.90;;
15486;SDS011;7845;53.698;10.078;2023-07-20T03:13:16;3.80;;;2.00;;
15486;SDS011;7845;53.698;10.078;2023-07-20T03:15:41;3.57;;;1.77;;
15486;SDS011;7845;53.698;10.078;2023-07-20T03:18:06;3.37;;;1.73;;
15486;SDS011;7845;53.698;10.078;2023-07-20T03:20:32;3.87;;;2.00;;
15486;SDS011;7845;53.698;10.078;2023-07-20T03:22:57;3.83;;;1.80;;
15486;SDS011;7845;53.698;10.078;2023-07-20T03:25:22;4.27;;;2.20;;
15486;SDS011;7845;53.698;10.078;2023-07-20T03:27:48;4.00;;;1.80;;
15486;SDS011;7845;53.698;10.078;2023-07-20T03:30:13;4.00;;;2.07;;
15486;SDS011;7845;53.698;10.078;2023-07-20T03:32:39;4.77;;;2.23;;
15486;SDS011;7845;53.698;10.078;2023-07-20T03:35:04;4.23;;;2.37;;
15486;SDS011;7845;53.698;10.078;2023-07-20T03:37:31;4.17;;;2.57;;
15486;SDS011;7845;53.698;10.078;2023-07-20T03:39:56;4.00;;;2.07;;
15486;SDS011;7845;53.698;10.078;2023-07-20T03:42:23;4.80;;;2.77;;
15486;SDS011;7845;53.698;10.078;2023-07-20T03:44:48;3.80;;;2.00;;
15486;SDS011;7845;53.698;10.078;2023-07-20T03:47:14;3.70;;;2.00;;
15486;SDS011;7845;53.698;10.078;2023-07-20T03:49:39;4.03;;;2.33;;
15486;SDS011;7845;53.698;10.078;2023-07-20T03:52:04;4.00;;;2.20;;
15486;SDS011;7845;53.698;10.078;2023-07-20T03:54:30;4.10;;;2.30;;
15486;SDS011;7845;53.698;10.078;2023-07-20T03:56:55;3.90;;;1.70;;
15486;SDS011;7845;53.698;10.078;2023-07-20T03:59:20;3.83;;;2.23;;
15486;SDS011;7845;53.698;10.078;2023-07-20T04:01:46;4.10;;;2.03;;
15486;SDS011;7845;53.698;10.078;2023-07-20T04:04:11;3.80;;;2.03;;
15486;SDS011;7845;53.698;10.078;2023-07-20T04:06:40;3.63;;;1.87;;
15486;SDS011;7845;53.698;10.078;2023-07-20T04:09:08;4.57;;;2.33;;
15486;SDS011;7845;53.698;10.078;2023-07-20T04:11:33;3.40;;;1.90;;
15486;SDS011;7845;53.698;10.078;2023-07-20T04:13:58;3.70;;;1.90;;
15486;SDS011;7845;53.698;10.078;2023-07-20T04:16:24;3.83;;;1.80;;
15486;SDS011;7845;53.698;10.078;2023-07-20T04:18:49;3.60;;;1.80;;
15486;SDS011;7845;53.698;10.078;2023-07-20T04:21:15;3.53;;;1.80;;
15486;SDS011;7845;53.698;10.078;2023-07-20T04:23:40;3.90;;;2.23;;
15486;SDS011;7845;53.698;10.078;2023-07-20T04:26:05;3.93;;;2.20;;
15486;SDS011;7845;53.698;10.078;2023-07-20T04:28:31;4.00;;;2.20;;
15486;SDS011;7845;53.698;10.078;2023-07-20T04:31:09;4.60;;;2.80;;
15486;SDS011;7845;53.698;10.078;2023-07-20T04:33:38;3.90;;;2.10;;
15486;SDS011;7845;53.698;10.078;2023-07-20T04:36:04;3.67;;;1.70;;
15486;SDS011;7845;53.698;10.078;2023-07-20T04:38:29;3.80;;;1.97;;
15486;SDS011;7845;53.698;10.078;2023-07-20T04:40:55;4.27;;;2.50;;
15486;SDS011;7845;53.698;10.078;2023-07-20T04:43:22;4.57;;;3.00;;
15486;SDS011;7845;53.698;10.078;2023-07-20T04:45:47;5.47;;;2.80;;
15486;SDS011;7845;53.698;10.078;2023-07-20T04:48:13;3.80;;;2.13;;
15486;SDS011;7845;53.698;10.078;2023-07-20T04:50:40;4.83;;;2.57;;
15486;SDS011;7845;53.698;10.078;2023-07-20T04:53:07;3.80;;;1.90;;
15486;SDS011;7845;53.698;10.078;2023-07-20T04:55:35;3.40;;;1.80;;
15486;SDS011;7845;53.698;10.078;2023-07-20T04:58:02;3.70;;;2.00;;
15486;SDS011;7845;53.698;10.078;2023-07-20T05:00:32;3.80;;;1.70;;
15486;SDS011;7845;53.698;10.078;2023-07-20T05:02:58;3.50;;;1.87;;
15486;SDS011;7845;53.698;10.078;2023-07-20T05:05:23;3.30;;;1.77;;
15486;SDS011;7845;53.698;10.078;2023-07-20T05:07:49;3.60;;;1.77;;
15486;SDS011;7845;53.698;10.078;2023-07-20T05:10:15;3.37;;;1.63;;
15486;SDS011;7845;53.698;10.078;2023-07-20T05:12:40;3.30;;;1.70;;
15486;SDS011;7845;53.698;10.078;2023-07-20T05:15:07;3.10;;;1.37;;
15486;SDS011;7845;53.698;10.078;2023-07-20T05:17:32;3.43;;;1.50;;
15486;SDS011;7845;53.698;10.078;2023-07-20T05:19:58;3.20;;;1.37;;
15486;SDS011;7845;53.698;10.078;2023-07-20T05:22:24;3.80;;;1.33;;
15486;SDS011;7845;53.698;10.078;2023-07-20T05:24:50;3.20;;;1.50;;
15486;SDS011;7845;53.698;10.078;2023-07-20T05:27:17;3.40;;;1.37;;
15486;SDS011;7845;53.698;10.078;2023-07-20T05:29:44;3.00;;;1.20;;
15486;SDS011;7845;53.698;10.078;2023-07-20T05:32:09;5.27;;;1.60;;
15486;SDS011;7845;53.698;10.078;2023-07-20T05:34:36;3.20;;;1.20;;
15486;SDS011;7845;53.698;10.078;2023-07-20T05:37:03;3.00;;;1.00;;
15486;SDS011;7845;53.698;10.078;2023-07-20T05:39:34;4.27;;;1.43;;
15486;SDS011;7845;53.698;10.078;2023-07-20T05:42:01;4.00;;;1.57;;
15486;SDS011;7845;53.698;10.078;2023-07-20T05:44:26;3.13;;;1.33;;
15486;SDS011;7845;53.698;10.078;2023-07-20T05:46:51;3.13;;;1.20;;
15486;SDS011;7845;53.698;10.078;2023-07-20T05:49:18;4.13;;;1.60;;
15486;SDS011;7845;53.698;10.078;2023-07-20T05:51:43;3.00;;;1.20;;
15486;SDS011;7845;53.698;10.078;2023-07-20T05:54:11;3.37;;;1.30;;
15486;SDS011;7845;53.698;10.078;2023-07-20T05:56:37;3.20;;;1.10;;
15486;SDS011;7845;53.698;10.078;2023-07-20T05:59:04;3.33;;;1.10;;
15486;SDS011;7845;53.698;10.078;2023-07-20T06:01:30;3.00;;;1.20;;
15486;SDS011;7845;53.698;10.078;2023-07-20T06:03:56;3.47;;;1.17;;
15486;SDS011;7845;53.698;10.078;2023-07-20T06:06:22;3.80;;;1.43;;
15486;SDS011;7845;53.698;10.078;2023-07-20T06:08:49;3.37;;;1.40;;
15486;SDS011;7845;53.698;10.078;2023-07-20T06:11:14;4.30;;;1.30;;
15486;SDS011;7845;53.698;10.078;2023-07-20T06:13:40;3.03;;;1.20;;
15486;SDS011;7845;53.698;10.078;2023-07-20T06:16:07;3.80;;;1.50;;
15486;SDS011;7845;53.698;10.078;2023-07-20T06:18:32;2.90;;;1.17;;
15486;SDS011;7845;53.698;10.078;2023-07-20T06:20:59;3.10;;;1.20;;
15486;SDS011;7845;53.698;10.078;2023-07-20T06:23:25;3.00;;;1.20;;
15486;SDS011;7845;53.698;10.078;2023-07-20T06:25:50;3.20;;;1.37;;
15486;SDS011;7845;53.698;10.078;2023-07-20T06:28:17;3.63;;;1.20;;
15486;SDS011;7845;53.698;10.078;2023-07-20T06:30:43;3.00;;;1.20;;
15486;SDS011;7845;53.698;10.078;2023-07-20T06:33:11;4.00;;;1.17;;
15486;SDS011;7845;53.698;10.078;2023-07-20T06:35:36;3.47;;;1.20;;
15486;SDS011;7845;53.698;10.078;2023-07-20T06:38:02;2.90;;;1.00;;
15486;SDS011;7845;53.698;10.078;2023-07-20T06:40:29;3.40;;;1.50;;
15486;SDS011;7845;53.698;10.078;2023-07-20T06:42:56;3.20;;;1.00;;
15486;SDS011;7845;53.698;10.078;2023-07-20T06:45:21;2.93;;;1.10;;
15486;SDS011;7845;53.698;10.078;2023-07-20T06:47:46;3.03;;;1.20;;
15486;SDS011;7845;53.698;10.078;2023-07-20T06:50:12;3.30;;;1.00;;
15486;SDS011;7845;53.698;10.078;2023-07-20T06:52:37;3.63;;;1.40;;
15486;SDS011;7845;53.698;10.078;2023-07-20T06:55:03;3.07;;;1.20;;
15486;SDS011;7845;53.698;10.078;2023-07-20T06:57:32;4.17;;;1.50;;
15486;SDS011;7845;53.698;10.078;2023-07-20T06:59:57;3.30;;;1.27;;
15486;SDS011;7845;53.698;10.078;2023-07-20T07:02:22;3.03;;;1.00;;
15486;SDS011;7845;53.698;10.078;2023-07-20T07:04:48;3.20;;;1.33;;
15486;SDS011;7845;53.698;10.078;2023-07-20T07:07:14;3.27;;;1.10;;
15486;SDS011;7845;53.698;10.078;2023-07-20T07:09:40;3.20;;;1.63;;
15486;SDS011;7845;53.698;10.078;2023-07-20T07:12:06;3.80;;;1.40;;
15486;SDS011;7845;53.698;10.078;2023-07-20T07:14:32;3.97;;;1.43;;
15486;SDS011;7845;53.698;10.078;2023-07-20T07:16:59;3.33;;;1.30;;
15486;SDS011;7845;53.698;10.078;2023-07-20T07:19:26;3.30;;;1.27;;
15486;SDS011;7845;53.698;10.078;2023-07-20T07:21:52;3.53;;;1.00;;
15486;SDS011;7845;53.698;10.078;2023-07-20T07:24:17;3.10;;;1.07;;
15486;SDS011;7845;53.698;10.078;2023-07-20T07:26:42;4.10;;;1.40;;
15486;SDS011;7845;53.698;10.078;2023-07-20T07:29:08;3.70;;;1.60;;
15486;SDS011;7845;53.698;10.078;2023-07-20T07:31:36;3.40;;;1.40;;
15486;SDS011;7845;53.698;10.078;2023-07-20T07:34:02;4.13;;;1.47;;
15486;SDS011;7845;53.698;10.078;2023-07-20T07:36:27;3.30;;;1.30;;
15486;SDS011;7845;53.698;10.078;2023-07-20T07:38:53;3.10;;;1.20;;
15486;SDS011;7845;53.698;10.078;2023-07-20T07:41:19;3.77;;;1.70;;
15486;SDS011;7845;53.698;10.078;2023-07-20T07:43:46;4.93;;;2.00;;
15486;SDS011;7845;53.698;10.078;2023-07-20T07:46:12;3.80;;;1.40;;
15486;SDS011;7845;53.698;10.078;2023-07-20T07:48:39;3.20;;;1.23;;
15486;SDS011;7845;53.698;10.078;2023-07-20T07:51:04;3.57;;;1.50;;
15486;SDS011;7845;53.698;10.078;2023-07-20T07:53:31;3.97;;;1.40;;
15486;SDS011;7845;53.698;10.078;2023-07-20T07:55:57;3.80;;;1.77;;
15486;SDS011;7845;53.698;10.078;2023-07-20T07:58:23;3.40;;;1.60;;
15486;SDS011;7845;53.698;10.078;2023-07-20T08:00:48;3.73;;;1.60;;
15486;SDS011;7845;53.698;10.078;2023-07-20T08:03:14;3.50;;;1.63;;
15486;SDS011;7845;53.698;10.078;2023-07-20T08:05:39;3.70;;;1.60;;
15486;SDS011;7845;53.698;10.078;2023-07-20T08:08:06;4.07;;;1.67;;
15486;SDS011;7845;53.698;10.078;2023-07-20T08:10:31;3.93;;;1.90;;
15486;SDS011;7845;53.698;10.078;2023-07-20T08:12:56;3.63;;;1.87;;
15486;SDS011;7845;53.698;10.078;2023-07-20T08:15:23;3.73;;;1.70;;
15486;SDS011;7845;53.698;10.078;2023-07-20T08:17:49;4.43;;;1.80;;
15486;SDS011;7845;53.698;10.078;2023-07-20T08:20:16;3.77;;;1.90;;
15486;SDS011;7845;53.698;10.078;2023-07-20T08:22:42;3.70;;;1.90;;
15486;SDS011;7845;53.698;10.078;2023-07-20T08:25:08;4.70;;;1.80;;
15486;SDS011;7845;53.698;10.078;2023-07-20T08:27:34;3.83;;;1.60;;
15486;SDS011;7845;53.698;10.078;2023-07-20T08:30:00;4.07;;;1.80;;
15486;SDS011;7845;53.698;10.078;2023-07-20T08:32:28;5.37;;;2.33;;
15486;SDS011;7845;53.698;10.078;2023-07-20T08:34:53;4.57;;;2.10;;
15486;SDS011;7845;53.698;10.078;2023-07-20T08:37:19;4.37;;;2.47;;
15486;SDS011;7845;53.698;10.078;2023-07-20T08:39:44;6.00;;;2.50;;
15486;SDS011;7845;53.698;10.078;2023-07-20T08:42:09;3.97;;;1.93;;
15486;SDS011;7845;53.698;10.078;2023-07-20T08:44:35;4.43;;;2.10;;
15486;SDS011;7845;53.698;10.078;2023-07-20T08:47:03;6.40;;;3.03;;
15486;SDS011;7845;53.698;10.078;2023-07-20T08:49:30;4.17;;;1.70;;
15486;SDS011;7845;53.698;10.078;2023-07-20T08:51:56;5.40;;;1.90;;
15486;SDS011;7845;53.698;10.078;2023-07-20T08:54:24;6.40;;;1.90;;
15486;SDS011;7845;53.698;10.078;2023-07-20T08:56:55;5.03;;;1.50;;
15486;SDS011;7845;53.698;10.078;2023-07-20T08:59:22;3.50;;;1.60;;
15486;SDS011;7845;53.698;10.078;2023-07-20T09:01:49;3.70;;;1.70;;
15486;SDS011;7845;53.698;10.078;2023-07-20T09:04:17;4.60;;;1.43;;
15486;SDS011;7845;53.698;10.078;2023-07-20T09:06:43;3.20;;;1.00;;
15486;SDS011;7845;53.698;10.078;2023-07-20T09:09:08;3.37;;;0.80;;
15486;SDS011;7845;53.698;10.078;2023-07-20T09:11:34;3.27;;;1.60;;
15486;SDS011;7845;53.698;10.078;2023-07-20T09:14:06;4.50;;;0.90;;
15486;SDS011;7845;53.698;10.078;2023-07-20T09:16:33;3.17;;;1.33;;
15486;SDS011;7845;53.698;10.078;2023-07-20T09:19:14;3.50;;;1.00;;
15486;SDS011;7845;53.698;10.078;2023-07-20T09:21:40;3.03;;;1.10;;
15486;SDS011;7845;53.698;10.078;2023-07-20T09:24:05;3.70;;;1.20;;
15486;SDS011;7845;53.698;10.078;2023-07-20T09:26:32;3.37;;;1.27;;
15486;SDS011;7845;53.698;10.078;2023-07-20T09:29:07;6.13;;;1.47;;
15486;SDS011;7845;53.698;10.078;2023-07-20T09:31:34;3.93;;;1.63;;
15486;SDS011;7845;53.698;10.078;2023-07-20T09:33:59;4.60;;;1.00;;
15486;SDS011;7845;53.698;10.078;2023-07-20T09:36:26;3.90;;;1.70;;
15486;SDS011;7845;53.698;10.078;2023-07-20T09:38:52;3.77;;;1.20;;
15486;SDS011;7845;53.698;10.078;2023-07-20T09:41:18;4.00;;;1.17;;
15486;SDS011;7845;53.698;10.078;2023-07-20T09:43:43;3.30;;;1.97;;
15486;SDS011;7845;53.698;10.078;2023-07-20T09:46:10;3.47;;;1.30;;
15486;SDS011;7845;53.698;10.078;2023-07-20T09:48:36;3.53;;;1.80;;
15486;SDS011;7845;53.698;10.078;2023-07-20T09:51:03;3.87;;;1.20;;
15486;SDS011;7845;53.698;10.078;2023-07-20T09:53:30;3.10;;;1.00;;
15486;SDS011;7845;53.698;10.078;2023-07-20T09:55:58;3.03;;;1.10;;
15486;SDS011;7845;53.698;10.078;2023-07-20T09:58:24;3.50;;;1.10;;
15486;SDS011;7845;53.698;10.078;2023-07-20T10:00:51;3.33;;;1.00;;
15486;SDS011;7845;53.698;10.078;2023-07-20T10:03:18;4.03;;;1.07;;
15486;SDS011;7845;53.698;10.078;2023-07-20T10:05:46;3.37;;;1.20;;
15486;SDS011;7845;53.698;10.078;2023-07-20T10:08:16;3.20;;;1.00;;
15486;SDS011;7845;53.698;10.078;2023-07-20T10:10:45;3.60;;;1.10;;
15486;SDS011;7845;53.698;10.078;2023-07-20T10:13:20;3.33;;;0.93;;
15486;SDS011;7845;53.698;10.078;2023-07-20T10:15:54;3.50;;;1.20;;
15486;SDS011;7845;53.698;10.078;2023-07-20T10:18:50;4.57;;;1.00;;
15486;SDS011;7845;53.698;10.078;2023-07-20T10:21:23;2.90;;;0.80;;
15486;SDS011;7845;53.698;10.078;2023-07-20T10:23:49;2.80;;;0.90;;
15486;SDS011;7845;53.698;10.078;2023-07-20T10:26:15;2.90;;;0.90;;
15486;SDS011;7845;53.698;10.078;2023-07-20T10:28:40;2.80;;;1.00;;
15486;SDS011;7845;53.698;10.078;2023-07-20T10:31:10;3.10;;;1.03;;
15486;SDS011;7845;53.698;10.078;2023-07-20T10:33:40;3.13;;;1.10;;
15486;SDS011;7845;53.698;10.078;2023-07-20T10:36:06;3.00;;;1.00;;
15486;SDS011;7845;53.698;10.078;2023-07-20T10:38:38;4.30;;;1.67;;
15486;SDS011;7845;53.698;10.078;2023-07-20T10:41:21;3.00;;;0.93;;
15486;SDS011;7845;53.698;10.078;2023-07-20T10:43:50;3.00;;;1.00;;
15486;SDS011;7845;53.698;10.078;2023-07-20T10:49:04;3.90;;;1.10;;
15486;SDS011;7845;53.698;10.078;2023-07-20T10:51:38;4.07;;;1.03;;
15486;SDS011;7845;53.698;10.078;2023-07-20T10:54:08;3.30;;;1.00;;
15486;SDS011;7845;53.698;10.078;2023-07-20T10:56:58;5.13;;;1.17;;
15486;SDS011;7845;53.698;10.078;2023-07-20T11:00:12;4.40;;;1.10;;
15486;SDS011;7845;53.698;10.078;2023-07-20T11:02:46;3.10;;;0.93;;
15486;SDS011;7845;53.698;10.078;2023-07-20T11:05:31;3.03;;;0.98;;
15486;SDS011;7845;53.698;10.078;2023-07-20T11:08:04;2.90;;;1.00;;
15486;SDS011;7845;53.698;10.078;2023-07-20T11:10:31;3.00;;;1.00;;
15486;SDS011;7845;53.698;10.078;2023-07-20T11:13:16;3.57;;;1.37;;
15486;SDS011;7845;53.698;10.078;2023-07-20T11:16:01;4.20;;;1.07;;
15486;SDS011;7845;53.698;10.078;2023-07-20T11:18:29;3.33;;;1.10;;
15486;SDS011;7845;53.698;10.078;2023-07-20T11:20:56;4.00;;;1.43;;
15486;SDS011;7845;53.698;10.078;2023-07-20T11:23:21;3.50;;;1.10;;
15486;SDS011;7845;53.698;10.078;2023-07-20T11:25:47;3.00;;;1.07;;
15486;SDS011;7845;53.698;10.078;2023-07-20T11:28:12;3.40;;;1.00;;
15486;SDS011;7845;53.698;10.078;2023-07-20T11:30:39;5.03;;;0.90;;
15486;SDS011;7845;53.698;10.078;2023-07-20T11:33:05;4.03;;;0.93;;
15486;SDS011;7845;53.698;10.078;2023-07-20T11:35:36;4.53;;;1.27;;
15486;SDS011;7845;53.698;10.078;2023-07-20T11:38:07;3.53;;;0.80;;
15486;SDS011;7845;53.698;10.078;2023-07-20T11:40:33;3.63;;;1.10;;
15486;SDS011;7845;53.698;10.078;2023-07-20T11:42:58;3.67;;;0.90;;
15486;SDS011;7845;53.698;10.078;2023-07-20T11:45:25;3.00;;;0.83;;
15486;SDS011;7845;53.698;10.078;2023-07-20T11:47:51;4.47;;;1.27;;
15486;SDS011;7845;53.698;10.078;2023-07-20T11:50:16;3.50;;;1.00;;
15486;SDS011;7845;53.698;10.078;2023-07-20T11:52:42;3.80;;;1.33;;
15486;SDS011;7845;53.698;10.078;2023-07-20T11:55:08;3.37;;;0.90;;
15486;SDS011;7845;53.698;10.078;2023-07-20T11:57:34;3.60;;;1.07;;
15486;SDS011;7845;53.698;10.078;2023-07-20T12:00:02;3.10;;;1.10;;
15486;SDS011;7845;53.698;10.078;2023-07-20T12:02:34;3.00;;;0.90;;
15486;SDS011;7845;53.698;10.078;2023-07-20T12:04:59;3.87;;;1.83;;
15486;SDS011;7845;53.698;10.078;2023-07-20T12:07:26;3.40;;;1.20;;
15486;SDS011;7845;53.698;10.078;2023-07-20T12:10:08;4.10;;;1.27;;
15486;SDS011;7845;53.698;10.078;2023-07-20T12:12:39;3.40;;;1.27;;
15486;SDS011;7845;53.698;10.078;2023-07-20T12:17:51;4.83;;;1.30;;
15486;SDS011;7845;53.698;10.078;2023-07-20T12:20:30;3.30;;;1.00;;
15486;SDS011;7845;53.698;10.078;2023-07-20T12:23:18;3.00;;;1.00;;
15486;SDS011;7845;53.698;10.078;2023-07-20T12:25:44;3.40;;;1.23;;
15486;SDS011;7845;53.698;10.078;2023-07-20T12:28:17;3.73;;;1.40;;
15486;SDS011;7845;53.698;10.078;2023-07-20T12:30:44;3.70;;;1.20;;
15486;SDS011;7845;53.698;10.078;2023-07-20T12:33:11;4.70;;;1.20;;
15486;SDS011;7845;53.698;10.078;2023-07-20T12:35:42;3.57;;;1.40;;
15486;SDS011;7845;53.698;10.078;2023-07-20T12:38:12;3.93;;;1.20;;
15486;SDS011;7845;53.698;10.078;2023-07-20T12:40:37;3.53;;;1.10;;
15486;SDS011;7845;53.698;10.078;2023-07-20T12:43:03;3.10;;;1.17;;
15486;SDS011;7845;53.698;10.078;2023-07-20T12:45:29;4.63;;;1.20;;
15486;SDS011;7845;53.698;10.078;2023-07-20T12:47:55;3.23;;;1.17;;
15486;SDS011;7845;53.698;10.078;2023-07-20T12:50:20;3.40;;;1.20;;
15486;SDS011;7845;53.698;10.078;2023-07-20T12:52:46;3.53;;;1.30;;
15486;SDS011;7845;53.698;10.078;2023-07-20T12:55:12;3.27;;;1.33;;
15486;SDS011;7845;53.698;10.078;2023-07-20T12:57:37;4.53;;;1.13;;
15486;SDS011;7845;53.698;10.078;2023-07-20T13:00:03;3.93;;;1.27;;
15486;SDS011;7845;53.698;10.078;2023-07-20T13:02:31;3.90;;;1.23;;
15486;SDS011;7845;53.698;10.078;2023-07-20T13:04:58;5.10;;;1.30;;
15486;SDS011;7845;53.698;10.078;2023-07-20T13:07:31;3.20;;;1.40;;
15486;SDS011;7845;53.698;10.078;2023-07-20T13:09:58;3.17;;;1.03;;
15486;SDS011;7845;53.698;10.078;2023-07-20T13:12:25;4.03;;;1.20;;
15486;SDS011;7845;53.698;10.078;2023-07-20T13:14:51;3.97;;;1.00;;
15486;SDS011;7845;53.698;10.078;2023-07-20T13:17:16;4.90;;;2.60;;
15486;SDS011;7845;53.698;10.078;2023-07-20T13:19:42;3.33;;;1.20;;
15486;SDS011;7845;53.698;10.078;2023-07-20T13:22:07;3.43;;;1.03;;
15486;SDS011;7845;53.698;10.078;2023-07-20T13:24:32;3.10;;;1.00;;
15486;SDS011;7845;53.698;10.078;2023-07-20T13:26:57;3.53;;;1.03;;
15486;SDS011;7845;53.698;10.078;2023-07-20T13:29:23;3.87;;;1.10;;
15486;SDS011;7845;53.698;10.078;2023-07-20T13:31:49;3.30;;;1.30;;
15486;SDS011;7845;53.698;10.078;2023-07-20T13:34:15;3.53;;;1.13;;
15486;SDS011;7845;53.698;10.078;2023-07-20T13:36:43;3.40;;;1.00;;
15486;SDS011;7845;53.698;10.078;2023-07-20T13:39:08;2.97;;;1.10;;
15486;SDS011;7845;53.698;10.078;2023-07-20T13:41:34;3.90;;;1.00;;
15486;SDS011;7845;53.698;10.078;2023-07-20T13:43:59;3.63;;;0.93;;
15486;SDS011;7845;53.698;10.078;2023-07-20T13:46:25;3.20;;;1.20;;
15486;SDS011;7845;53.698;10.078;2023-07-20T13:48:50;4.47;;;1.20;;
15486;SDS011;7845;53.698;10.078;2023-07-20T13:51:16;4.13;;;1.07;;
15486;SDS011;7845;53.698;10.078;2023-07-20T13:53:41;3.67;;;0.70;;
15486;SDS011;7845;53.698;10.078;2023-07-20T13:56:06;2.97;;;0.90;;
15486;SDS011;7845;53.698;10.078;2023-07-20T13:58:32;3.70;;;1.10;;
15486;SDS011;7845;53.698;10.078;2023-07-20T14:00:58;2.90;;;0.80;;
15486;SDS011;7845;53.698;10.078;2023-07-20T14:03:23;3.37;;;0.90;;
15486;SDS011;7845;53.698;10.078;2023-07-20T14:05:50;2.90;;;0.93;;
15486;SDS011;7845;53.698;10.078;2023-07-20T14:08:15;2.90;;;1.10;;
15486;SDS011;7845;53.698;10.078;2023-07-20T14:10:41;3.87;;;1.03;;
15486;SDS011;7845;53.698;10.078;2023-07-20T14:13:07;3.80;;;1.03;;
15486;SDS011;7845;53.698;10.078;2023-07-20T14:15:33;2.80;;;0.90;;
15486;SDS011;7845;53.698;10.078;2023-07-20T14:18:00;3.03;;;1.07;;
15486;SDS011;7845;53.698;10.078;2023-07-20T14:20:25;3.03;;;0.80;;
15486;SDS011;7845;53.698;10.078;2023-07-20T14:22:51;2.70;;;0.80;;
15486;SDS011;7845;53.698;10.078;2023-07-20T14:25:18;3.10;;;1.00;;
15486;SDS011;7845;53.698;10.078;2023-07-20T14:27:43;3.43;;;0.90;;
15486;SDS011;7845;53.698;10.078;2023-07-20T14:30:08;3.03;;;1.10;;
15486;SDS011;7845;53.698;10.078;2023-07-20T14:32:35;3.63;;;1.00;;
15486;SDS011;7845;53.698;10.078;2023-07-20T14:35:00;3.23;;;1.10;;
15486;SDS011;7845;53.698;10.078;2023-07-20T14:37:26;3.10;;;0.90;;
15486;SDS011;7845;53.698;10.078;2023-07-20T14:39:51;5.20;;;1.93;;
15486;SDS011;7845;53.698;10.078;2023-07-20T14:42:17;4.00;;;1.00;;
15486;SDS011;7845;53.698;10.078;2023-07-20T14:44:44;3.20;;;0.90;;
15486;SDS011;7845;53.698;10.078;2023-07-20T14:47:11;3.40;;;0.90;;
15486;SDS011;7845;53.698;10.078;2023-07-20T14:49:36;3.27;;;0.80;;
15486;SDS011;7845;53.698;10.078;2023-07-20T14:52:02;3.70;;;1.07;;
15486;SDS011;7845;53.698;10.078;2023-07-20T14:54:29;3.03;;;0.93;;
15486;SDS011;7845;53.698;10.078;2023-07-20T14:56:54;3.43;;;1.20;;
15486;SDS011;7845;53.698;10.078;2023-07-20T14:59:21;4.80;;;1.23;;
15486;SDS011;7845;53.698;10.078;2023-07-20T15:01:47;5.00;;;1.33;;
15486;SDS011;7845;53.698;10.078;2023-07-20T15:04:16;3.80;;;1.10;;